sensor_id;sensor_type;location;lat;lon;timestamp;temperature;humidity
25536;DHT22;13431;51.352;6.412;2022-08-26T00:01:52;20.10;99.90
25536;DHT22;13431;51.352;6.412;2022-08-26T00:04:22;20.00;99.90
25536;DHT22;13431;51.352;6.412;2022-08-26T00:06:52;20.00;99.90
25536;DHT22;13431;51.352;6.412;2022-08-26T00:09:20;20.00;99.90
25536;DHT22;13431;51.352;6.412;2022-08-26T00:11:47;20.00;99.90
25536;DHT22;13431;51.352;6.412;2022-08-26T00:14:17;20.00;99.90
25536;DHT22;13431;51.352;6.412;2022-08-26T00:16:44;20.00;99.90
25536;DHT22;13431;51.352;6.412;2022-08-26T00:19:16;19.90;99.90
25536;DHT22;13431;51.352;6.412;2022-08-26T00:21:45;19.90;99.90
25536;DHT22;13431;51.352;6.412;2022-08-26T00:24:18;19.90;99.90
25536;DHT22;13431;51.352;6.412;2022-08-26T00:26:47;19.80;99.90
25536;DHT22;13431;51.352;6.412;2022-08-26T00:29:16;19.80;99.90
25536;DHT22;13431;51.352;6.412;2022-08-26T00:31:44;19.80;99.90
25536;DHT22;13431;51.352;6.412;2022-08-26T00:34:12;19.80;99.90
25536;DHT22;13431;51.352;6.412;2022-08-26T00:36:42;19.80;99.90
25536;DHT22;13431;51.352;6.412;2022-08-26T00:39:10;19.80;99.90
25536;DHT22;13431;51.352;6.412;2022-08-26T00:41:38;19.70;99.90
25536;DHT22;13431;51.352;6.412;2022-08-26T00:44:08;19.70;99.90
25536;DHT22;13431;51.352;6.412;2022-08-26T00:46:43;19.70;99.90
25536;DHT22;13431;51.352;6.412;2022-08-26T00:49:22;19.70;99.90
25536;DHT22;13431;51.352;6.412;2022-08-26T00:51:54;19.70;99.90
25536;DHT22;13431;51.352;6.412;2022-08-26T00:54:26;19.60;99.90
25536;DHT22;13431;51.352;6.412;2022-08-26T00:56:57;19.60;99.90
25536;DHT22;13431;51.352;6.412;2022-08-26T00:59:27;19.60;99.90
25536;DHT22;13431;51.352;6.412;2022-08-26T01:02:00;19.60;99.90
25536;DHT22;13431;51.352;6.412;2022-08-26T01:04:30;19.60;99.90
25536;DHT22;13431;51.352;6.412;2022-08-26T01:07:00;19.50;99.90
25536;DHT22;13431;51.352;6.412;2022-08-26T01:09:29;19.50;99.90
25536;DHT22;13431;51.352;6.412;2022-08-26T01:12:01;19.50;99.90
25536;DHT22;13431;51.352;6.412;2022-08-26T01:14:33;19.50;99.90
25536;DHT22;13431;51.352;6.412;2022-08-26T01:17:04;19.50;99.90
25536;DHT22;13431;51.352;6.412;2022-08-26T01:19:46;19.40;99.90
25536;DHT22;13431;51.352;6.412;2022-08-26T01:22:19;19.40;99.90
25536;DHT22;13431;51.352;6.412;2022-08-26T01:24:55;19.40;99.90
25536;DHT22;13431;51.352;6.412;2022-08-26T01:27:24;19.30;99.90
25536;DHT22;13431;51.352;6.412;2022-08-26T01:29:59;19.30;99.90
25536;DHT22;13431;51.352;6.412;2022-08-26T01:32:29;19.20;99.90
25536;DHT22;13431;51.352;6.412;2022-08-26T01:34:58;19.10;99.90
25536;DHT22;13431;51.352;6.412;2022-08-26T01:37:28;19.10;99.90
25536;DHT22;13431;51.352;6.412;2022-08-26T01:39:59;19.20;99.90
25536;DHT22;13431;51.352;6.412;2022-08-26T01:42:27;19.10;99.90
25536;DHT22;13431;51.352;6.412;2022-08-26T01:45:06;19.10;99.90
25536;DHT22;13431;51.352;6.412;2022-08-26T01:47:37;19.10;99.90
25536;DHT22;13431;51.352;6.412;2022-08-26T01:50:10;19.10;99.90
25536;DHT22;13431;51.352;6.412;2022-08-26T01:52:40;19.10;99.90
25536;DHT22;13431;51.352;6.412;2022-08-26T01:55:11;19.10;99.90
25536;DHT22;13431;51.352;6.412;2022-08-26T01:57:59;19.10;99.90
25536;DHT22;13431;51.352;6.412;2022-08-26T02:00:28;19.20;99.90
25536;DHT22;13431;51.352;6.412;2022-08-26T02:02:56;19.40;99.90
25536;DHT22;13431;51.352;6.412;2022-08-26T02:05:45;19.60;99.90
25536;DHT22;13431;51.352;6.412;2022-08-26T02:08:19;19.80;99.90
25536;DHT22;13431;51.352;6.412;2022-08-26T02:10:52;19.90;99.90
25536;DHT22;13431;51.352;6.412;2022-08-26T02:13:23;19.90;99.90
25536;DHT22;13431;51.352;6.412;2022-08-26T02:15:53;20.00;99.90
25536;DHT22;13431;51.352;6.412;2022-08-26T02:18:21;20.10;99.90
25536;DHT22;13431;51.352;6.412;2022-08-26T02:20:52;20.10;99.90
25536;DHT22;13431;51.352;6.412;2022-08-26T02:23:20;20.10;99.90
25536;DHT22;13431;51.352;6.412;2022-08-26T02:26:08;20.20;99.90
25536;DHT22;13431;51.352;6.412;2022-08-26T02:29:06;20.20;99.90
25536;DHT22;13431;51.352;6.412;2022-08-26T02:31:34;20.20;99.90
25536;DHT22;13431;51.352;6.412;2022-08-26T02:34:13;20.20;99.90
25536;DHT22;13431;51.352;6.412;2022-08-26T02:36:41;20.20;99.90
25536;DHT22;13431;51.352;6.412;2022-08-26T02:39:09;20.20;99.90
25536;DHT22;13431;51.352;6.412;2022-08-26T02:41:37;20.30;99.90
25536;DHT22;13431;51.352;6.412;2022-08-26T02:44:11;20.30;99.90
25536;DHT22;13431;51.352;6.412;2022-08-26T02:46:40;20.30;99.90
25536;DHT22;13431;51.352;6.412;2022-08-26T02:49:14;20.30;99.90
25536;DHT22;13431;51.352;6.412;2022-08-26T02:51:43;20.30;99.90
25536;DHT22;13431;51.352;6.412;2022-08-26T02:54:11;20.30;99.90
25536;DHT22;13431;51.352;6.412;2022-08-26T02:56:39;20.40;99.90
25536;DHT22;13431;51.352;6.412;2022-08-26T02:59:06;20.40;99.90
25536;DHT22;13431;51.352;6.412;2022-08-26T03:01:35;20.40;99.90
25536;DHT22;13431;51.352;6.412;2022-08-26T03:04:04;20.40;99.90
25536;DHT22;13431;51.352;6.412;2022-08-26T03:06:32;20.40;99.90
25536;DHT22;13431;51.352;6.412;2022-08-26T03:08:59;20.40;99.90
25536;DHT22;13431;51.352;6.412;2022-08-26T03:11:27;20.40;99.90
25536;DHT22;13431;51.352;6.412;2022-08-26T03:14:00;20.40;99.90
25536;DHT22;13431;51.352;6.412;2022-08-26T03:16:34;20.40;99.90
25536;DHT22;13431;51.352;6.412;2022-08-26T03:19:05;20.40;99.90
25536;DHT22;13431;51.352;6.412;2022-08-26T03:21:35;20.40;99.90
25536;DHT22;13431;51.352;6.412;2022-08-26T03:24:04;20.40;99.90
25536;DHT22;13431;51.352;6.412;2022-08-26T03:26:31;20.40;99.90
25536;DHT22;13431;51.352;6.412;2022-08-26T03:28:59;20.40;99.90
25536;DHT22;13431;51.352;6.412;2022-08-26T03:31:45;20.40;99.90
25536;DHT22;13431;51.352;6.412;2022-08-26T03:34:13;20.40;99.90
25536;DHT22;13431;51.352;6.412;2022-08-26T03:36:41;20.40;99.90
25536;DHT22;13431;51.352;6.412;2022-08-26T03:39:10;20.40;99.90
25536;DHT22;13431;51.352;6.412;2022-08-26T03:41:39;20.40;99.90
25536;DHT22;13431;51.352;6.412;2022-08-26T03:44:07;20.40;99.90
25536;DHT22;13431;51.352;6.412;2022-08-26T03:46:36;20.40;99.90
25536;DHT22;13431;51.352;6.412;2022-08-26T03:49:05;20.40;99.90
25536;DHT22;13431;51.352;6.412;2022-08-26T03:51:34;20.40;99.90
25536;DHT22;13431;51.352;6.412;2022-08-26T03:54:06;20.40;99.90
25536;DHT22;13431;51.352;6.412;2022-08-26T03:56:35;20.40;99.90
25536;DHT22;13431;51.352;6.412;2022-08-26T03:59:03;20.40;99.90
25536;DHT22;13431;51.352;6.412;2022-08-26T04:01:34;20.40;99.90
25536;DHT22;13431;51.352;6.412;2022-08-26T04:04:03;20.40;99.90
25536;DHT22;13431;51.352;6.412;2022-08-26T04:06:40;20.40;99.90
25536;DHT22;13431;51.352;6.412;2022-08-26T04:09:13;20.40;99.90
25536;DHT22;13431;51.352;6.412;2022-08-26T04:11:42;20.40;99.90
25536;DHT22;13431;51.352;6.412;2022-08-26T04:14:16;20.40;99.90
25536;DHT22;13431;51.352;6.412;2022-08-26T04:16:47;20.40;99.90
25536;DHT22;13431;51.352;6.412;2022-08-26T04:19:15;20.40;99.90
25536;DHT22;13431;51.352;6.412;2022-08-26T04:21:45;20.50;99.90
25536;DHT22;13431;51.352;6.412;2022-08-26T04:24:15;20.50;99.90
25536;DHT22;13431;51.352;6.412;2022-08-26T04:26:44;20.50;99.90
25536;DHT22;13431;51.352;6.412;2022-08-26T04:29:15;20.50;99.90
25536;DHT22;13431;51.352;6.412;2022-08-26T04:31:44;20.50;99.90
25536;DHT22;13431;51.352;6.412;2022-08-26T04:34:15;20.50;99.90
25536;DHT22;13431;51.352;6.412;2022-08-26T04:36:43;20.50;99.90
25536;DHT22;13431;51.352;6.412;2022-08-26T04:39:11;20.50;99.90
25536;DHT22;13431;51.352;6.412;2022-08-26T04:41:43;20.50;99.90
25536;DHT22;13431;51.352;6.412;2022-08-26T04:44:10;20.50;99.90
25536;DHT22;13431;51.352;6.412;2022-08-26T04:46:39;20.50;99.90
25536;DHT22;13431;51.352;6.412;2022-08-26T04:49:10;20.50;99.90
25536;DHT22;13431;51.352;6.412;2022-08-26T04:51:38;20.50;99.90
25536;DHT22;13431;51.352;6.412;2022-08-26T04:54:06;20.50;99.90
25536;DHT22;13431;51.352;6.412;2022-08-26T04:56:36;20.50;99.90
25536;DHT22;13431;51.352;6.412;2022-08-26T04:59:06;20.50;99.90
25536;DHT22;13431;51.352;6.412;2022-08-26T05:01:48;20.60;99.90
25536;DHT22;13431;51.352;6.412;2022-08-26T05:04:18;20.60;99.90
25536;DHT22;13431;51.352;6.412;2022-08-26T05:06:47;20.60;99.90
25536;DHT22;13431;51.352;6.412;2022-08-26T05:09:14;20.60;99.90
25536;DHT22;13431;51.352;6.412;2022-08-26T05:11:42;20.60;99.90
25536;DHT22;13431;51.352;6.412;2022-08-26T05:14:09;20.70;99.90
25536;DHT22;13431;51.352;6.412;2022-08-26T05:16:36;20.70;99.90
25536;DHT22;13431;51.352;6.412;2022-08-26T05:19:06;20.70;99.90
25536;DHT22;13431;51.352;6.412;2022-08-26T05:21:35;20.70;99.90
25536;DHT22;13431;51.352;6.412;2022-08-26T05:24:05;20.70;99.90
25536;DHT22;13431;51.352;6.412;2022-08-26T05:26:32;20.80;99.90
25536;DHT22;13431;51.352;6.412;2022-08-26T05:29:00;20.80;99.90
25536;DHT22;13431;51.352;6.412;2022-08-26T05:31:30;20.90;99.90
25536;DHT22;13431;51.352;6.412;2022-08-26T05:34:01;21.00;99.90
25536;DHT22;13431;51.352;6.412;2022-08-26T05:36:32;21.00;99.90
25536;DHT22;13431;51.352;6.412;2022-08-26T05:39:06;21.00;99.90
25536;DHT22;13431;51.352;6.412;2022-08-26T05:41:39;21.00;99.90
25536;DHT22;13431;51.352;6.412;2022-08-26T05:44:10;21.00;99.90
25536;DHT22;13431;51.352;6.412;2022-08-26T05:46:40;21.00;99.90
25536;DHT22;13431;51.352;6.412;2022-08-26T05:49:11;21.00;99.90
25536;DHT22;13431;51.352;6.412;2022-08-26T05:51:41;21.00;99.90
25536;DHT22;13431;51.352;6.412;2022-08-26T05:54:12;21.00;99.90
25536;DHT22;13431;51.352;6.412;2022-08-26T05:56:47;21.00;99.90
25536;DHT22;13431;51.352;6.412;2022-08-26T05:59:16;20.90;99.90
25536;DHT22;13431;51.352;6.412;2022-08-26T06:01:51;21.00;99.90
25536;DHT22;13431;51.352;6.412;2022-08-26T06:04:22;21.00;99.90
25536;DHT22;13431;51.352;6.412;2022-08-26T06:06:55;20.90;99.90
25536;DHT22;13431;51.352;6.412;2022-08-26T06:09:23;20.90;99.90
25536;DHT22;13431;51.352;6.412;2022-08-26T06:11:50;20.90;99.90
25536;DHT22;13431;51.352;6.412;2022-08-26T06:14:19;20.90;99.90
25536;DHT22;13431;51.352;6.412;2022-08-26T06:16:47;21.00;99.90
25536;DHT22;13431;51.352;6.412;2022-08-26T06:19:14;21.00;99.90
25536;DHT22;13431;51.352;6.412;2022-08-26T06:21:45;21.10;99.90
25536;DHT22;13431;51.352;6.412;2022-08-26T06:24:20;21.10;99.90
25536;DHT22;13431;51.352;6.412;2022-08-26T06:27:06;21.20;99.90
25536;DHT22;13431;51.352;6.412;2022-08-26T06:29:37;21.20;99.90
25536;DHT22;13431;51.352;6.412;2022-08-26T06:32:05;21.30;99.90
25536;DHT22;13431;51.352;6.412;2022-08-26T06:34:32;21.30;99.90
25536;DHT22;13431;51.352;6.412;2022-08-26T06:37:01;21.30;99.90
25536;DHT22;13431;51.352;6.412;2022-08-26T06:39:30;21.30;99.90
25536;DHT22;13431;51.352;6.412;2022-08-26T06:42:01;21.30;99.90
25536;DHT22;13431;51.352;6.412;2022-08-26T06:44:33;21.30;99.90
25536;DHT22;13431;51.352;6.412;2022-08-26T06:47:00;21.30;99.90
25536;DHT22;13431;51.352;6.412;2022-08-26T06:49:28;21.30;99.90
25536;DHT22;13431;51.352;6.412;2022-08-26T06:51:55;21.30;99.90
25536;DHT22;13431;51.352;6.412;2022-08-26T06:54:27;21.40;99.90
25536;DHT22;13431;51.352;6.412;2022-08-26T06:56:58;21.50;99.90
25536;DHT22;13431;51.352;6.412;2022-08-26T06:59:25;21.60;99.90
25536;DHT22;13431;51.352;6.412;2022-08-26T07:01:53;21.60;99.90
25536;DHT22;13431;51.352;6.412;2022-08-26T07:04:21;21.60;99.90
25536;DHT22;13431;51.352;6.412;2022-08-26T07:06:52;21.50;99.90
25536;DHT22;13431;51.352;6.412;2022-08-26T07:09:21;21.60;99.90
25536;DHT22;13431;51.352;6.412;2022-08-26T07:11:50;21.60;99.90
25536;DHT22;13431;51.352;6.412;2022-08-26T07:14:18;21.70;99.90
25536;DHT22;13431;51.352;6.412;2022-08-26T07:16:48;21.70;99.90
25536;DHT22;13431;51.352;6.412;2022-08-26T07:19:17;21.60;99.90
25536;DHT22;13431;51.352;6.412;2022-08-26T07:22:04;21.60;99.90
25536;DHT22;13431;51.352;6.412;2022-08-26T07:24:33;21.70;99.90
25536;DHT22;13431;51.352;6.412;2022-08-26T07:27:04;21.90;99.90
25536;DHT22;13431;51.352;6.412;2022-08-26T07:29:33;22.10;99.90
25536;DHT22;13431;51.352;6.412;2022-08-26T07:32:00;22.20;99.90
25536;DHT22;13431;51.352;6.412;2022-08-26T07:34:29;22.20;99.90
25536;DHT22;13431;51.352;6.412;2022-08-26T07:36:59;22.30;99.90
25536;DHT22;13431;51.352;6.412;2022-08-26T07:39:27;22.20;99.90
25536;DHT22;13431;51.352;6.412;2022-08-26T07:42:00;22.20;99.90
25536;DHT22;13431;51.352;6.412;2022-08-26T07:44:34;22.10;99.90
25536;DHT22;13431;51.352;6.412;2022-08-26T07:47:02;22.10;99.90
25536;DHT22;13431;51.352;6.412;2022-08-26T07:49:36;22.10;99.90
25536;DHT22;13431;51.352;6.412;2022-08-26T07:52:05;22.30;99.90
25536;DHT22;13431;51.352;6.412;2022-08-26T07:54:32;22.40;99.90
25536;DHT22;13431;51.352;6.412;2022-08-26T07:57:00;22.50;99.90
25536;DHT22;13431;51.352;6.412;2022-08-26T07:59:31;22.50;99.90
25536;DHT22;13431;51.352;6.412;2022-08-26T08:01:58;22.50;99.90
25536;DHT22;13431;51.352;6.412;2022-08-26T08:04:27;22.70;99.90
25536;DHT22;13431;51.352;6.412;2022-08-26T08:06:54;22.90;99.90
25536;DHT22;13431;51.352;6.412;2022-08-26T08:09:22;23.20;99.90
25536;DHT22;13431;51.352;6.412;2022-08-26T08:11:51;23.70;99.90
25536;DHT22;13431;51.352;6.412;2022-08-26T08:14:19;24.00;99.90
25536;DHT22;13431;51.352;6.412;2022-08-26T08:16:49;24.20;99.90
25536;DHT22;13431;51.352;6.412;2022-08-26T08:19:21;24.10;99.90
25536;DHT22;13431;51.352;6.412;2022-08-26T08:21:50;24.10;99.90
25536;DHT22;13431;51.352;6.412;2022-08-26T08:24:18;23.90;99.90
25536;DHT22;13431;51.352;6.412;2022-08-26T08:26:46;23.80;99.90
25536;DHT22;13431;51.352;6.412;2022-08-26T08:29:14;23.70;99.90
25536;DHT22;13431;51.352;6.412;2022-08-26T08:31:41;23.70;99.90
25536;DHT22;13431;51.352;6.412;2022-08-26T08:34:25;23.70;99.90
25536;DHT22;13431;51.352;6.412;2022-08-26T08:36:53;24.00;99.90
25536;DHT22;13431;51.352;6.412;2022-08-26T08:39:21;24.00;99.90
25536;DHT22;13431;51.352;6.412;2022-08-26T08:44:41;24.10;99.90
25536;DHT22;13431;51.352;6.412;2022-08-26T08:47:40;24.00;99.90
25536;DHT22;13431;51.352;6.412;2022-08-26T08:50:48;24.20;99.90
25536;DHT22;13431;51.352;6.412;2022-08-26T08:53:32;24.10;99.90
25536;DHT22;13431;51.352;6.412;2022-08-26T08:56:23;24.30;99.90
25536;DHT22;13431;51.352;6.412;2022-08-26T08:59:21;24.60;99.90
25536;DHT22;13431;51.352;6.412;2022-08-26T09:07:47;25.00;99.90
25536;DHT22;13431;51.352;6.412;2022-08-26T09:12:56;25.10;99.90
25536;DHT22;13431;51.352;6.412;2022-08-26T09:15:40;25.10;99.90
25536;DHT22;13431;51.352;6.412;2022-08-26T09:20:59;24.50;99.90
25536;DHT22;13431;51.352;6.412;2022-08-26T09:23:27;24.50;99.90
25536;DHT22;13431;51.352;6.412;2022-08-26T09:26:00;24.50;99.90
25536;DHT22;13431;51.352;6.412;2022-08-26T09:28:29;24.40;99.90
25536;DHT22;13431;51.352;6.412;2022-08-26T09:31:12;24.30;99.90
25536;DHT22;13431;51.352;6.412;2022-08-26T09:33:41;24.30;99.90
25536;DHT22;13431;51.352;6.412;2022-08-26T09:36:21;24.50;99.90
25536;DHT22;13431;51.352;6.412;2022-08-26T09:38:52;24.60;99.90
25536;DHT22;13431;51.352;6.412;2022-08-26T09:41:23;24.90;99.90
25536;DHT22;13431;51.352;6.412;2022-08-26T09:44:15;25.30;99.90
25536;DHT22;13431;51.352;6.412;2022-08-26T09:46:56;25.00;99.90
25536;DHT22;13431;51.352;6.412;2022-08-26T09:49:29;24.80;99.90
25536;DHT22;13431;51.352;6.412;2022-08-26T09:54:37;24.30;99.90
25536;DHT22;13431;51.352;6.412;2022-08-26T09:59:44;24.10;99.90
25536;DHT22;13431;51.352;6.412;2022-08-26T10:02:28;24.10;99.90
25536;DHT22;13431;51.352;6.412;2022-08-26T10:05:05;24.10;99.90
25536;DHT22;13431;51.352;6.412;2022-08-26T10:10:21;24.40;99.90
25536;DHT22;13431;51.352;6.412;2022-08-26T10:13:01;24.50;99.90
25536;DHT22;13431;51.352;6.412;2022-08-26T10:15:39;24.60;99.90
25536;DHT22;13431;51.352;6.412;2022-08-26T10:18:19;24.60;99.90
25536;DHT22;13431;51.352;6.412;2022-08-26T10:20:54;24.70;99.90
25536;DHT22;13431;51.352;6.412;2022-08-26T10:23:24;25.00;99.90
25536;DHT22;13431;51.352;6.412;2022-08-26T10:26:07;25.10;99.90
25536;DHT22;13431;51.352;6.412;2022-08-26T10:28:59;25.20;99.90
25536;DHT22;13431;51.352;6.412;2022-08-26T10:31:38;25.70;99.90
25536;DHT22;13431;51.352;6.412;2022-08-26T10:34:08;25.80;99.90
25536;DHT22;13431;51.352;6.412;2022-08-26T10:39:48;25.40;99.90
25536;DHT22;13431;51.352;6.412;2022-08-26T10:42:31;25.70;99.90
25536;DHT22;13431;51.352;6.412;2022-08-26T10:45:11;25.70;99.90
25536;DHT22;13431;51.352;6.412;2022-08-26T10:50:39;25.20;99.90
25536;DHT22;13431;51.352;6.412;2022-08-26T10:56:06;24.80;99.90
25536;DHT22;13431;51.352;6.412;2022-08-26T11:04:29;24.60;99.90
25536;DHT22;13431;51.352;6.412;2022-08-26T11:10:04;24.70;99.90
25536;DHT22;13431;51.352;6.412;2022-08-26T11:15:08;24.70;99.90
25536;DHT22;13431;51.352;6.412;2022-08-26T11:22:52;25.20;99.90
25536;DHT22;13431;51.352;6.412;2022-08-26T11:25:21;25.10;99.90
25536;DHT22;13431;51.352;6.412;2022-08-26T11:27:57;25.20;99.90
25536;DHT22;13431;51.352;6.412;2022-08-26T11:30:39;25.30;99.90
25536;DHT22;13431;51.352;6.412;2022-08-26T11:33:07;25.20;99.90
25536;DHT22;13431;51.352;6.412;2022-08-26T11:38:24;25.10;99.90
25536;DHT22;13431;51.352;6.412;2022-08-26T11:41:05;25.10;99.90
25536;DHT22;13431;51.352;6.412;2022-08-26T11:43:33;25.00;99.90
25536;DHT22;13431;51.352;6.412;2022-08-26T11:46:09;24.70;99.90
25536;DHT22;13431;51.352;6.412;2022-08-26T11:48:39;24.80;99.90
25536;DHT22;13431;51.352;6.412;2022-08-26T11:53:41;24.60;99.90
25536;DHT22;13431;51.352;6.412;2022-08-26T11:56:30;24.70;99.90
25536;DHT22;13431;51.352;6.412;2022-08-26T11:59:02;24.90;99.90
25536;DHT22;13431;51.352;6.412;2022-08-26T12:01:31;25.00;99.90
25536;DHT22;13431;51.352;6.412;2022-08-26T12:04:04;24.90;99.90
25536;DHT22;13431;51.352;6.412;2022-08-26T12:06:34;25.00;99.90
25536;DHT22;13431;51.352;6.412;2022-08-26T12:09:24;24.90;99.90
25536;DHT22;13431;51.352;6.412;2022-08-26T12:11:52;24.80;99.90
25536;DHT22;13431;51.352;6.412;2022-08-26T12:14:38;24.80;99.90
25536;DHT22;13431;51.352;6.412;2022-08-26T12:17:17;24.60;99.90
25536;DHT22;13431;51.352;6.412;2022-08-26T12:19:48;24.50;99.90
25536;DHT22;13431;51.352;6.412;2022-08-26T12:24:54;24.40;99.90
25536;DHT22;13431;51.352;6.412;2022-08-26T12:27:32;24.20;99.90
25536;DHT22;13431;51.352;6.412;2022-08-26T12:32:41;23.90;99.90
25536;DHT22;13431;51.352;6.412;2022-08-26T12:35:24;23.90;99.90
25536;DHT22;13431;51.352;6.412;2022-08-26T12:37:55;23.70;99.90
25536;DHT22;13431;51.352;6.412;2022-08-26T12:42:59;23.60;99.90
25536;DHT22;13431;51.352;6.412;2022-08-26T12:45:37;23.70;99.90
25536;DHT22;13431;51.352;6.412;2022-08-26T12:48:11;23.90;99.90
25536;DHT22;13431;51.352;6.412;2022-08-26T12:50:46;23.90;99.90
25536;DHT22;13431;51.352;6.412;2022-08-26T12:53:24;24.00;99.90
25536;DHT22;13431;51.352;6.412;2022-08-26T12:55:55;23.90;99.90
25536;DHT22;13431;51.352;6.412;2022-08-26T12:58:37;23.90;99.90
25536;DHT22;13431;51.352;6.412;2022-08-26T13:06:27;24.00;99.90
25536;DHT22;13431;51.352;6.412;2022-08-26T13:11:29;23.50;99.90
25536;DHT22;13431;51.352;6.412;2022-08-26T13:14:00;23.50;99.90
25536;DHT22;13431;51.352;6.412;2022-08-26T13:16:34;23.40;99.90
25536;DHT22;13431;51.352;6.412;2022-08-26T13:19:06;23.30;99.90
25536;DHT22;13431;51.352;6.412;2022-08-26T13:21:42;23.20;99.90
25536;DHT22;13431;51.352;6.412;2022-08-26T13:24:12;23.20;99.90
25536;DHT22;13431;51.352;6.412;2022-08-26T13:26:42;23.20;99.90
25536;DHT22;13431;51.352;6.412;2022-08-26T13:29:10;23.10;99.90
25536;DHT22;13431;51.352;6.412;2022-08-26T13:31:39;22.90;99.90
25536;DHT22;13431;51.352;6.412;2022-08-26T13:34:09;22.80;99.90
25536;DHT22;13431;51.352;6.412;2022-08-26T13:36:37;22.60;99.90
25536;DHT22;13431;51.352;6.412;2022-08-26T13:39:05;22.50;99.90
25536;DHT22;13431;51.352;6.412;2022-08-26T13:41:32;22.40;99.90
25536;DHT22;13431;51.352;6.412;2022-08-26T13:44:00;22.40;99.90
25536;DHT22;13431;51.352;6.412;2022-08-26T13:46:27;22.50;99.90
25536;DHT22;13431;51.352;6.412;2022-08-26T13:48:56;22.70;99.90
25536;DHT22;13431;51.352;6.412;2022-08-26T13:51:25;22.80;99.90
25536;DHT22;13431;51.352;6.412;2022-08-26T13:53:53;22.80;99.90
25536;DHT22;13431;51.352;6.412;2022-08-26T13:56:21;22.80;99.90
25536;DHT22;13431;51.352;6.412;2022-08-26T13:58:49;22.80;99.90
25536;DHT22;13431;51.352;6.412;2022-08-26T14:01:16;22.90;99.90
25536;DHT22;13431;51.352;6.412;2022-08-26T14:03:44;23.30;99.90
25536;DHT22;13431;51.352;6.412;2022-08-26T14:06:12;23.70;99.90
25536;DHT22;13431;51.352;6.412;2022-08-26T14:08:40;24.00;99.90
25536;DHT22;13431;51.352;6.412;2022-08-26T14:11:07;24.30;99.90
25536;DHT22;13431;51.352;6.412;2022-08-26T14:13:36;24.50;99.90
25536;DHT22;13431;51.352;6.412;2022-08-26T14:16:07;24.60;99.90
25536;DHT22;13431;51.352;6.412;2022-08-26T14:18:38;24.50;99.90
25536;DHT22;13431;51.352;6.412;2022-08-26T14:21:10;24.30;99.90
25536;DHT22;13431;51.352;6.412;2022-08-26T14:23:38;24.30;99.90
25536;DHT22;13431;51.352;6.412;2022-08-26T14:26:06;24.30;99.90
25536;DHT22;13431;51.352;6.412;2022-08-26T14:28:34;24.40;99.90
25536;DHT22;13431;51.352;6.412;2022-08-26T14:31:03;24.50;99.90
25536;DHT22;13431;51.352;6.412;2022-08-26T14:33:33;24.50;99.90
25536;DHT22;13431;51.352;6.412;2022-08-26T14:36:04;24.40;99.90
25536;DHT22;13431;51.352;6.412;2022-08-26T14:38:50;24.30;99.90
25536;DHT22;13431;51.352;6.412;2022-08-26T14:41:19;24.10;99.90
25536;DHT22;13431;51.352;6.412;2022-08-26T14:43:50;23.90;99.90
25536;DHT22;13431;51.352;6.412;2022-08-26T14:46:20;23.80;99.90
25536;DHT22;13431;51.352;6.412;2022-08-26T14:48:48;23.80;99.90
25536;DHT22;13431;51.352;6.412;2022-08-26T14:51:15;23.70;99.90
25536;DHT22;13431;51.352;6.412;2022-08-26T14:53:42;23.50;99.90
25536;DHT22;13431;51.352;6.412;2022-08-26T14:56:29;23.60;99.90
25536;DHT22;13431;51.352;6.412;2022-08-26T14:58:57;23.60;99.90
25536;DHT22;13431;51.352;6.412;2022-08-26T15:01:25;23.60;99.90
25536;DHT22;13431;51.352;6.412;2022-08-26T15:03:58;23.50;99.90
25536;DHT22;13431;51.352;6.412;2022-08-26T15:06:28;23.60;99.90
25536;DHT22;13431;51.352;6.412;2022-08-26T15:08:56;23.50;99.90
25536;DHT22;13431;51.352;6.412;2022-08-26T15:11:24;23.50;99.90
25536;DHT22;13431;51.352;6.412;2022-08-26T15:13:51;23.40;99.90
25536;DHT22;13431;51.352;6.412;2022-08-26T15:16:19;23.40;99.90
25536;DHT22;13431;51.352;6.412;2022-08-26T15:18:48;23.40;99.90
25536;DHT22;13431;51.352;6.412;2022-08-26T15:21:16;23.30;99.90
25536;DHT22;13431;51.352;6.412;2022-08-26T15:23:44;23.20;99.90
25536;DHT22;13431;51.352;6.412;2022-08-26T15:26:14;23.10;99.90
25536;DHT22;13431;51.352;6.412;2022-08-26T15:28:42;23.00;99.90
25536;DHT22;13431;51.352;6.412;2022-08-26T15:31:09;22.90;99.90
25536;DHT22;13431;51.352;6.412;2022-08-26T15:33:37;22.70;99.90
25536;DHT22;13431;51.352;6.412;2022-08-26T15:36:06;22.70;99.90
25536;DHT22;13431;51.352;6.412;2022-08-26T15:38:39;22.60;99.90
25536;DHT22;13431;51.352;6.412;2022-08-26T15:41:07;22.70;99.90
25536;DHT22;13431;51.352;6.412;2022-08-26T15:43:36;22.60;99.90
25536;DHT22;13431;51.352;6.412;2022-08-26T15:46:04;22.60;99.90
25536;DHT22;13431;51.352;6.412;2022-08-26T15:48:36;22.60;99.90
25536;DHT22;13431;51.352;6.412;2022-08-26T15:51:05;22.50;99.90
25536;DHT22;13431;51.352;6.412;2022-08-26T15:53:33;22.40;99.90
25536;DHT22;13431;51.352;6.412;2022-08-26T15:56:01;22.30;99.90
25536;DHT22;13431;51.352;6.412;2022-08-26T15:58:29;22.30;99.90
25536;DHT22;13431;51.352;6.412;2022-08-26T16:00:57;22.40;99.90
25536;DHT22;13431;51.352;6.412;2022-08-26T16:03:24;22.40;99.90
25536;DHT22;13431;51.352;6.412;2022-08-26T16:05:51;22.50;99.90
25536;DHT22;13431;51.352;6.412;2022-08-26T16:08:19;22.40;99.90
25536;DHT22;13431;51.352;6.412;2022-08-26T16:10:49;22.50;99.90
25536;DHT22;13431;51.352;6.412;2022-08-26T16:13:18;22.60;99.90
25536;DHT22;13431;51.352;6.412;2022-08-26T16:15:46;22.60;99.90
25536;DHT22;13431;51.352;6.412;2022-08-26T16:18:14;22.50;99.90
25536;DHT22;13431;51.352;6.412;2022-08-26T16:20:50;22.50;99.90
25536;DHT22;13431;51.352;6.412;2022-08-26T16:23:38;22.60;99.90
25536;DHT22;13431;51.352;6.412;2022-08-26T16:26:10;22.50;99.90
25536;DHT22;13431;51.352;6.412;2022-08-26T16:28:38;22.50;99.90
25536;DHT22;13431;51.352;6.412;2022-08-26T16:31:06;22.50;99.90
25536;DHT22;13431;51.352;6.412;2022-08-26T16:33:33;22.50;99.90
25536;DHT22;13431;51.352;6.412;2022-08-26T16:36:01;22.40;99.90
25536;DHT22;13431;51.352;6.412;2022-08-26T16:38:28;22.30;99.90
25536;DHT22;13431;51.352;6.412;2022-08-26T16:40:57;22.20;99.90
25536;DHT22;13431;51.352;6.412;2022-08-26T16:43:24;22.10;99.90
25536;DHT22;13431;51.352;6.412;2022-08-26T16:45:52;22.00;99.90
25536;DHT22;13431;51.352;6.412;2022-08-26T16:48:19;21.90;99.90
25536;DHT22;13431;51.352;6.412;2022-08-26T16:50:47;21.90;99.90
25536;DHT22;13431;51.352;6.412;2022-08-26T16:53:14;22.00;99.90
25536;DHT22;13431;51.352;6.412;2022-08-26T16:55:46;21.90;99.90
25536;DHT22;13431;51.352;6.412;2022-08-26T16:58:14;21.90;99.90
25536;DHT22;13431;51.352;6.412;2022-08-26T17:00:42;21.90;99.90
25536;DHT22;13431;51.352;6.412;2022-08-26T17:03:11;21.80;99.90
25536;DHT22;13431;51.352;6.412;2022-08-26T17:05:39;21.80;99.90